Genesee Depot, WI (53127)

3:24 PM CDT on September 02, 2014 (GMT -0500)
KWIGENES3 | Change Station
CLOSE
Current Station
Personal Weather Station
Location: GENESEE DEPOT, WI
Elevation: 931 ft
Nearby Weather Stations

Elev 931 ft 42.97 °N, 88.36 °W | Updated 16 seconds ago

Partly Cloudy
Partly Cloudy
77.0 °F
Feels Like 79 °F
N
2.0
Wind Variable Wind from SW
Gusts 8.0 mph

Today
High -- | Low -- °F
--% Chance of Precip.
Yesterday
High -- | Low -- °F
Precip. -- in
6:19 AM 7:26 PM
First Quarter, 54% visible
Pressure 29.92 in
Visibility 10.0 miles
Clouds Scattered Clouds 3500 ft
Mostly Cloudy 4300 ft
Heat Index 79 °F
Dew Point 62 °F
Humidity 61%
Rainfall 0.01 in
Snow Depth Not available.
UV 4.0 out of 12
Pollen 9.30 out of 12
Air Quality Not available.
Flu Activity Not available.
METAR KUES 021945Z 25007KT 10SM SCT035 BKN043 22/16 A2992

More Conditions Fewer Conditions

Pressure 29.92 in
Visibility 10.0 miles
Clouds Scattered Clouds 3500 ft
Mostly Cloudy 4300 ft
Heat Index 79 °F
Dew Point 62 °F
Humidity 61%
Rainfall 0.01 in
Snow Depth Not available.
UV 4.0 out of 12
Pollen 9.30 out of 12
Air Quality Not available.
Flu Activity Not available.
METAR KUES 021945Z 25007KT 10SM SCT035 BKN043 22/16 A2992

More Conditions Fewer Conditions

10-Day Weather Forecast

Almanac

Astronomy

Sep. 02, 2014 Rise Set
Actual Time 6:19 AM CDT 7:26 PM CDT
Civil Twilight 5:49 AM CDT 7:55 PM CDT
Nautical Twilight 5:15 AM CDT 8:30 PM CDT
Astronomical Twilight 4:38 AM CDT 9:06 PM CDT
Moon 2:13 PM CDT No Moon Set
Length of Visible Light 14h 05m
Length of Day
13h 07m
Tomorrow will be 2m 49s shorter.
First Quarter, 54% of the Moon is Illuminated
Today
First Quarter
Sep 8
Full
Sep 15
Last Quarter
Sep 24
New
Oct 1
First Quarter

Today's Extremes

State Highs State Lows

Community

WunderPhotos

Upload Photos

1,749,757 photos uploaded!

WunderBlogs® & News

By Dr. Jeff Masters
Director of Meteorology, Weather Underground
By Kari Strenfel
Meteorologist, Weather Underground
By Christopher C. Burt
Weather Historian, Weather Underground
September 2, 2014
September 2, 2014
September 2, 2014

Nearby

Snow Depth

Station Depth Elevation
No new snow has been reported.

Earthquake Activity

City Distance Mag. Time & Date
No recent earthquake activity has been reported nearby.
Minimum magnitude displayed is 2.5.

Coastal Water Temperatures

Place Temperature
No Stations Reporting

Nearby Weather Stations